sensor_id;sensor_type;location;lat;lon;timestamp;temperature;humidity
41469;DHT22;27206;47.032;15.484;2022-07-12T00:01:42;14.80;25.80
41469;DHT22;27206;47.032;15.484;2022-07-12T00:04:08;14.90;4.90
41469;DHT22;27206;47.032;15.484;2022-07-12T00:06:33;14.80;1.00
41469;DHT22;27206;47.032;15.484;2022-07-12T00:08:59;14.90;1.00
41469;DHT22;27206;47.032;15.484;2022-07-12T00:11:25;14.90;4.70
41469;DHT22;27206;47.032;15.484;2022-07-12T00:13:51;14.90;11.10
41469;DHT22;27206;47.032;15.484;2022-07-12T00:16:16;14.90;3.50
41469;DHT22;27206;47.032;15.484;2022-07-12T00:18:42;15.00;4.60
41469;DHT22;27206;47.032;15.484;2022-07-12T00:21:08;15.00;9.40
41469;DHT22;27206;47.032;15.484;2022-07-12T00:23:35;15.00;6.30
41469;DHT22;27206;47.032;15.484;2022-07-12T00:26:01;14.90;16.60
41469;DHT22;27206;47.032;15.484;2022-07-12T00:28:30;14.90;29.00
41469;DHT22;27206;47.032;15.484;2022-07-12T00:30:56;14.80;39.60
41469;DHT22;27206;47.032;15.484;2022-07-12T00:33:22;15.00;28.80
41469;DHT22;27206;47.032;15.484;2022-07-12T00:35:48;15.00;1.00
41469;DHT22;27206;47.032;15.484;2022-07-12T00:38:13;14.90;2.40
41469;DHT22;27206;47.032;15.484;2022-07-12T00:40:39;15.00;1.00
41469;DHT22;27206;47.032;15.484;2022-07-12T00:43:04;15.00;1.00
41469;DHT22;27206;47.032;15.484;2022-07-12T00:45:30;15.10;1.00
41469;DHT22;27206;47.032;15.484;2022-07-12T00:47:56;15.10;1.00
41469;DHT22;27206;47.032;15.484;2022-07-12T00:50:22;15.20;1.00
41469;DHT22;27206;47.032;15.484;2022-07-12T00:52:51;15.20;1.00
41469;DHT22;27206;47.032;15.484;2022-07-12T00:55:18;15.00;1.00
41469;DHT22;27206;47.032;15.484;2022-07-12T00:57:44;15.20;1.00
41469;DHT22;27206;47.032;15.484;2022-07-12T01:00:11;15.20;1.00
41469;DHT22;27206;47.032;15.484;2022-07-12T01:02:38;15.20;1.00
41469;DHT22;27206;47.032;15.484;2022-07-12T01:05:05;15.10;1.00
41469;DHT22;27206;47.032;15.484;2022-07-12T01:07:32;15.00;1.00
41469;DHT22;27206;47.032;15.484;2022-07-12T01:09:58;15.10;1.00
41469;DHT22;27206;47.032;15.484;2022-07-12T01:12:25;15.10;1.00
41469;DHT22;27206;47.032;15.484;2022-07-12T01:14:51;15.30;1.30
41469;DHT22;27206;47.032;15.484;2022-07-12T01:17:24;15.20;13.80
41469;DHT22;27206;47.032;15.484;2022-07-12T01:19:52;15.10;4.10
41469;DHT22;27206;47.032;15.484;2022-07-12T01:22:18;15.30;1.30
41469;DHT22;27206;47.032;15.484;2022-07-12T01:24:45;15.40;1.00
41469;DHT22;27206;47.032;15.484;2022-07-12T01:27:11;15.40;1.00
41469;DHT22;27206;47.032;15.484;2022-07-12T01:29:38;15.40;21.80
41469;DHT22;27206;47.032;15.484;2022-07-12T01:32:05;15.30;15.00
41469;DHT22;27206;47.032;15.484;2022-07-12T01:34:52;15.40;15.50
41469;DHT22;27206;47.032;15.484;2022-07-12T01:37:19;15.50;3.90
41469;DHT22;27206;47.032;15.484;2022-07-12T01:39:46;15.40;8.50
41469;DHT22;27206;47.032;15.484;2022-07-12T01:42:12;15.60;1.80
41469;DHT22;27206;47.032;15.484;2022-07-12T01:44:38;15.50;2.00
41469;DHT22;27206;47.032;15.484;2022-07-12T01:47:04;15.40;1.00
41469;DHT22;27206;47.032;15.484;2022-07-12T01:49:30;15.40;1.00
41469;DHT22;27206;47.032;15.484;2022-07-12T01:51:56;15.50;1.00
41469;DHT22;27206;47.032;15.484;2022-07-12T01:54:24;15.40;11.70
41469;DHT22;27206;47.032;15.484;2022-07-12T01:56:50;15.30;27.50
41469;DHT22;27206;47.032;15.484;2022-07-12T01:59:17;15.30;16.90
41469;DHT22;27206;47.032;15.484;2022-07-12T02:01:43;15.30;1.00
41469;DHT22;27206;47.032;15.484;2022-07-12T02:04:09;15.20;2.70
41469;DHT22;27206;47.032;15.484;2022-07-12T02:06:35;15.10;10.70
41469;DHT22;27206;47.032;15.484;2022-07-12T02:09:01;15.20;7.60
41469;DHT22;27206;47.032;15.484;2022-07-12T02:11:27;15.30;4.50
41469;DHT22;27206;47.032;15.484;2022-07-12T02:13:53;15.40;11.10
41469;DHT22;27206;47.032;15.484;2022-07-12T02:16:18;15.40;7.50
41469;DHT22;27206;47.032;15.484;2022-07-12T02:18:44;15.40;1.00
41469;DHT22;27206;47.032;15.484;2022-07-12T02:21:10;15.50;1.00
41469;DHT22;27206;47.032;15.484;2022-07-12T02:23:35;15.50;8.70
41469;DHT22;27206;47.032;15.484;2022-07-12T02:26:01;15.50;14.40
41469;DHT22;27206;47.032;15.484;2022-07-12T02:28:27;15.50;1.00
41469;DHT22;27206;47.032;15.484;2022-07-12T02:30:52;15.50;1.00
41469;DHT22;27206;47.032;15.484;2022-07-12T02:33:18;15.50;1.00
41469;DHT22;27206;47.032;15.484;2022-07-12T02:35:45;15.60;1.00
41469;DHT22;27206;47.032;15.484;2022-07-12T02:38:11;15.60;1.00
41469;DHT22;27206;47.032;15.484;2022-07-12T02:40:37;15.60;1.00
41469;DHT22;27206;47.032;15.484;2022-07-12T02:43:28;15.60;1.00
41469;DHT22;27206;47.032;15.484;2022-07-12T02:46:01;15.60;8.20
41469;DHT22;27206;47.032;15.484;2022-07-12T02:48:27;15.60;7.50
41469;DHT22;27206;47.032;15.484;2022-07-12T02:50:53;15.50;1.60
41469;DHT22;27206;47.032;15.484;2022-07-12T02:53:19;15.40;8.00
41469;DHT22;27206;47.032;15.484;2022-07-12T02:55:45;15.40;4.00
41469;DHT22;27206;47.032;15.484;2022-07-12T02:58:11;15.40;22.10
41469;DHT22;27206;47.032;15.484;2022-07-12T03:00:39;15.40;14.80
41469;DHT22;27206;47.032;15.484;2022-07-12T03:03:06;15.40;9.90
41469;DHT22;27206;47.032;15.484;2022-07-12T03:05:34;15.40;12.80
41469;DHT22;27206;47.032;15.484;2022-07-12T03:08:01;15.40;10.80
41469;DHT22;27206;47.032;15.484;2022-07-12T03:10:27;15.40;20.10
41469;DHT22;27206;47.032;15.484;2022-07-12T03:12:53;15.40;18.50
41469;DHT22;27206;47.032;15.484;2022-07-12T03:15:19;15.30;23.10
41469;DHT22;27206;47.032;15.484;2022-07-12T03:17:44;15.30;30.10
41469;DHT22;27206;47.032;15.484;2022-07-12T03:20:11;15.30;39.70
41469;DHT22;27206;47.032;15.484;2022-07-12T03:22:43;15.30;33.90
41469;DHT22;27206;47.032;15.484;2022-07-12T03:25:10;15.30;38.90
41469;DHT22;27206;47.032;15.484;2022-07-12T03:27:35;15.30;33.10
41469;DHT22;27206;47.032;15.484;2022-07-12T03:30:01;15.30;29.30
41469;DHT22;27206;47.032;15.484;2022-07-12T03:32:27;15.40;49.50
41469;DHT22;27206;47.032;15.484;2022-07-12T03:34:53;15.80;12.60
41469;DHT22;27206;47.032;15.484;2022-07-12T03:37:18;15.80;19.00
41469;DHT22;27206;47.032;15.484;2022-07-12T03:39:44;15.80;32.10
41469;DHT22;27206;47.032;15.484;2022-07-12T03:42:10;15.70;15.50
41469;DHT22;27206;47.032;15.484;2022-07-12T03:44:38;15.70;11.10
41469;DHT22;27206;47.032;15.484;2022-07-12T03:47:04;15.70;6.20
41469;DHT22;27206;47.032;15.484;2022-07-12T03:49:30;15.70;8.50
41469;DHT22;27206;47.032;15.484;2022-07-12T03:51:56;15.80;15.30
41469;DHT22;27206;47.032;15.484;2022-07-12T03:54:22;15.80;29.00
41469;DHT22;27206;47.032;15.484;2022-07-12T03:56:47;15.70;29.60
41469;DHT22;27206;47.032;15.484;2022-07-12T03:59:32;15.70;54.20
41469;DHT22;27206;47.032;15.484;2022-07-12T04:01:57;15.60;37.30
41469;DHT22;27206;47.032;15.484;2022-07-12T04:04:23;15.70;44.10
41469;DHT22;27206;47.032;15.484;2022-07-12T04:06:49;15.70;41.60
41469;DHT22;27206;47.032;15.484;2022-07-12T04:09:15;15.70;27.60
41469;DHT22;27206;47.032;15.484;2022-07-12T04:11:40;15.70;27.80
41469;DHT22;27206;47.032;15.484;2022-07-12T04:14:06;15.70;22.90
41469;DHT22;27206;47.032;15.484;2022-07-12T04:16:32;15.80;5.90
41469;DHT22;27206;47.032;15.484;2022-07-12T04:18:58;15.80;9.70
41469;DHT22;27206;47.032;15.484;2022-07-12T04:21:24;15.90;15.00
41469;DHT22;27206;47.032;15.484;2022-07-12T04:23:50;16.00;22.90
41469;DHT22;27206;47.032;15.484;2022-07-12T04:26:15;15.90;19.50
41469;DHT22;27206;47.032;15.484;2022-07-12T04:28:41;15.90;9.00
41469;DHT22;27206;47.032;15.484;2022-07-12T04:31:06;15.90;20.00
41469;DHT22;27206;47.032;15.484;2022-07-12T04:33:33;15.90;20.60
41469;DHT22;27206;47.032;15.484;2022-07-12T04:35:59;15.90;23.10
41469;DHT22;27206;47.032;15.484;2022-07-12T04:38:24;15.90;12.50
41469;DHT22;27206;47.032;15.484;2022-07-12T04:40:50;16.00;3.00
41469;DHT22;27206;47.032;15.484;2022-07-12T04:43:16;16.00;1.00
41469;DHT22;27206;47.032;15.484;2022-07-12T04:45:42;16.10;11.50
41469;DHT22;27206;47.032;15.484;2022-07-12T04:48:11;16.00;2.50
41469;DHT22;27206;47.032;15.484;2022-07-12T04:50:37;16.00;1.00
41469;DHT22;27206;47.032;15.484;2022-07-12T04:53:03;16.00;1.00
41469;DHT22;27206;47.032;15.484;2022-07-12T04:55:29;16.10;1.00
41469;DHT22;27206;47.032;15.484;2022-07-12T04:57:55;16.10;1.00
41469;DHT22;27206;47.032;15.484;2022-07-12T05:00:21;16.10;1.00
41469;DHT22;27206;47.032;15.484;2022-07-12T05:02:47;16.10;1.00
41469;DHT22;27206;47.032;15.484;2022-07-12T05:05:13;16.10;1.00
41469;DHT22;27206;47.032;15.484;2022-07-12T05:07:40;16.10;1.00
41469;DHT22;27206;47.032;15.484;2022-07-12T05:10:06;16.10;1.00
41469;DHT22;27206;47.032;15.484;2022-07-12T05:12:31;16.20;1.00
41469;DHT22;27206;47.032;15.484;2022-07-12T05:14:57;16.20;1.00
41469;DHT22;27206;47.032;15.484;2022-07-12T05:17:23;16.30;1.00
41469;DHT22;27206;47.032;15.484;2022-07-12T05:19:48;16.40;1.00
41469;DHT22;27206;47.032;15.484;2022-07-12T05:22:14;16.40;1.00
41469;DHT22;27206;47.032;15.484;2022-07-12T05:24:39;16.40;1.00
41469;DHT22;27206;47.032;15.484;2022-07-12T05:27:05;16.50;1.00
41469;DHT22;27206;47.032;15.484;2022-07-12T05:29:31;16.60;1.00
41469;DHT22;27206;47.032;15.484;2022-07-12T05:31:57;16.60;1.00
41469;DHT22;27206;47.032;15.484;2022-07-12T05:34:23;16.70;8.70
41469;DHT22;27206;47.032;15.484;2022-07-12T05:36:48;16.70;8.00
41469;DHT22;27206;47.032;15.484;2022-07-12T05:39:14;16.80;1.00
41469;DHT22;27206;47.032;15.484;2022-07-12T05:41:40;16.80;1.00
41469;DHT22;27206;47.032;15.484;2022-07-12T05:44:05;16.80;4.90
41469;DHT22;27206;47.032;15.484;2022-07-12T05:46:31;16.80;1.00
41469;DHT22;27206;47.032;15.484;2022-07-12T05:48:57;16.80;1.00
41469;DHT22;27206;47.032;15.484;2022-07-12T05:51:23;16.90;1.00
41469;DHT22;27206;47.032;15.484;2022-07-12T05:54:07;17.00;1.00
41469;DHT22;27206;47.032;15.484;2022-07-12T05:56:32;17.10;1.00
41469;DHT22;27206;47.032;15.484;2022-07-12T05:58:58;17.20;1.00
41469;DHT22;27206;47.032;15.484;2022-07-12T06:01:24;17.20;1.00
41469;DHT22;27206;47.032;15.484;2022-07-12T06:03:50;17.20;1.00
41469;DHT22;27206;47.032;15.484;2022-07-12T06:06:15;17.20;1.00
41469;DHT22;27206;47.032;15.484;2022-07-12T06:08:41;17.30;1.00
41469;DHT22;27206;47.032;15.484;2022-07-12T06:11:06;17.30;1.00
41469;DHT22;27206;47.032;15.484;2022-07-12T06:13:32;17.30;1.00
41469;DHT22;27206;47.032;15.484;2022-07-12T06:15:58;17.50;1.00
41469;DHT22;27206;47.032;15.484;2022-07-12T06:18:25;17.60;1.00
41469;DHT22;27206;47.032;15.484;2022-07-12T06:20:50;17.60;1.00
41469;DHT22;27206;47.032;15.484;2022-07-12T06:23:16;17.70;1.00
41469;DHT22;27206;47.032;15.484;2022-07-12T06:25:42;17.70;1.00
41469;DHT22;27206;47.032;15.484;2022-07-12T06:28:07;17.70;1.00
41469;DHT22;27206;47.032;15.484;2022-07-12T06:30:35;17.80;1.00
41469;DHT22;27206;47.032;15.484;2022-07-12T06:33:01;17.90;1.00
41469;DHT22;27206;47.032;15.484;2022-07-12T06:35:27;17.90;1.00
41469;DHT22;27206;47.032;15.484;2022-07-12T06:37:53;18.10;1.00
41469;DHT22;27206;47.032;15.484;2022-07-12T06:40:19;18.40;1.00
41469;DHT22;27206;47.032;15.484;2022-07-12T06:42:44;18.60;1.00
41469;DHT22;27206;47.032;15.484;2022-07-12T06:45:10;18.70;1.00
41469;DHT22;27206;47.032;15.484;2022-07-12T06:47:36;18.60;1.00
41469;DHT22;27206;47.032;15.484;2022-07-12T06:50:03;18.60;1.00
41469;DHT22;27206;47.032;15.484;2022-07-12T06:52:29;18.60;1.00
41469;DHT22;27206;47.032;15.484;2022-07-12T06:54:56;18.80;1.00
41469;DHT22;27206;47.032;15.484;2022-07-12T06:57:21;18.90;1.00
41469;DHT22;27206;47.032;15.484;2022-07-12T06:59:47;19.10;1.00
41469;DHT22;27206;47.032;15.484;2022-07-12T07:02:13;19.20;1.00
41469;DHT22;27206;47.032;15.484;2022-07-12T07:04:39;19.10;1.00
41469;DHT22;27206;47.032;15.484;2022-07-12T07:07:05;19.20;1.00
41469;DHT22;27206;47.032;15.484;2022-07-12T07:09:30;19.20;1.00
41469;DHT22;27206;47.032;15.484;2022-07-12T07:11:56;19.30;1.00
41469;DHT22;27206;47.032;15.484;2022-07-12T07:14:21;19.40;1.00
41469;DHT22;27206;47.032;15.484;2022-07-12T07:16:47;19.50;1.00
41469;DHT22;27206;47.032;15.484;2022-07-12T07:19:13;19.50;1.00
41469;DHT22;27206;47.032;15.484;2022-07-12T07:21:38;19.70;1.00
41469;DHT22;27206;47.032;15.484;2022-07-12T07:24:04;19.90;1.00
41469;DHT22;27206;47.032;15.484;2022-07-12T07:26:30;19.90;1.00
41469;DHT22;27206;47.032;15.484;2022-07-12T07:28:58;19.90;1.00
41469;DHT22;27206;47.032;15.484;2022-07-12T07:31:42;19.90;1.00
41469;DHT22;27206;47.032;15.484;2022-07-12T07:34:08;20.00;1.00
41469;DHT22;27206;47.032;15.484;2022-07-12T07:36:34;20.10;1.00
41469;DHT22;27206;47.032;15.484;2022-07-12T07:38:59;20.30;1.00
41469;DHT22;27206;47.032;15.484;2022-07-12T07:41:25;20.40;1.00
41469;DHT22;27206;47.032;15.484;2022-07-12T07:43:51;20.30;1.00
41469;DHT22;27206;47.032;15.484;2022-07-12T07:46:16;20.50;1.00
41469;DHT22;27206;47.032;15.484;2022-07-12T07:48:42;20.70;1.00
41469;DHT22;27206;47.032;15.484;2022-07-12T07:51:08;20.70;1.00
41469;DHT22;27206;47.032;15.484;2022-07-12T07:53:33;20.60;1.00
41469;DHT22;27206;47.032;15.484;2022-07-12T07:55:59;20.70;1.00
41469;DHT22;27206;47.032;15.484;2022-07-12T07:58:25;20.70;1.00
41469;DHT22;27206;47.032;15.484;2022-07-12T08:00:51;20.80;1.00
41469;DHT22;27206;47.032;15.484;2022-07-12T08:03:18;21.00;1.00
41469;DHT22;27206;47.032;15.484;2022-07-12T08:05:44;21.10;1.00
41469;DHT22;27206;47.032;15.484;2022-07-12T08:08:09;21.10;1.00
41469;DHT22;27206;47.032;15.484;2022-07-12T08:10:35;21.10;1.00
41469;DHT22;27206;47.032;15.484;2022-07-12T08:13:01;21.00;1.00
41469;DHT22;27206;47.032;15.484;2022-07-12T08:15:27;21.00;1.00
41469;DHT22;27206;47.032;15.484;2022-07-12T08:17:52;21.00;1.00
41469;DHT22;27206;47.032;15.484;2022-07-12T08:20:18;21.10;1.00
41469;DHT22;27206;47.032;15.484;2022-07-12T08:22:45;21.30;1.00
41469;DHT22;27206;47.032;15.484;2022-07-12T08:25:11;21.40;1.00
41469;DHT22;27206;47.032;15.484;2022-07-12T08:27:37;21.60;1.00
41469;DHT22;27206;47.032;15.484;2022-07-12T08:30:02;21.90;1.00
41469;DHT22;27206;47.032;15.484;2022-07-12T08:32:28;22.00;1.00
41469;DHT22;27206;47.032;15.484;2022-07-12T08:34:54;22.00;1.00
41469;DHT22;27206;47.032;15.484;2022-07-12T08:37:21;21.90;1.00
41469;DHT22;27206;47.032;15.484;2022-07-12T08:39:46;21.70;1.00
41469;DHT22;27206;47.032;15.484;2022-07-12T08:42:15;21.60;1.00
41469;DHT22;27206;47.032;15.484;2022-07-12T08:44:42;21.60;1.00
41469;DHT22;27206;47.032;15.484;2022-07-12T08:47:08;21.50;1.00
41469;DHT22;27206;47.032;15.484;2022-07-12T08:49:34;21.40;1.00
41469;DHT22;27206;47.032;15.484;2022-07-12T08:52:10;21.20;1.00
41469;DHT22;27206;47.032;15.484;2022-07-12T08:54:46;21.20;1.00
41469;DHT22;27206;47.032;15.484;2022-07-12T08:57:28;21.20;1.00
41469;DHT22;27206;47.032;15.484;2022-07-12T08:59:59;21.10;1.00
41469;DHT22;27206;47.032;15.484;2022-07-12T09:02:25;21.20;1.00
41469;DHT22;27206;47.032;15.484;2022-07-12T09:05:08;21.30;1.00
41469;DHT22;27206;47.032;15.484;2022-07-12T09:07:37;21.60;1.00
41469;DHT22;27206;47.032;15.484;2022-07-12T09:10:07;21.90;1.00
41469;DHT22;27206;47.032;15.484;2022-07-12T09:12:34;22.10;1.00
41469;DHT22;27206;47.032;15.484;2022-07-12T09:15:20;22.30;1.00
41469;DHT22;27206;47.032;15.484;2022-07-12T09:18:00;22.40;1.00
41469;DHT22;27206;47.032;15.484;2022-07-12T09:20:34;22.60;1.00
41469;DHT22;27206;47.032;15.484;2022-07-12T09:23:05;22.50;1.00
41469;DHT22;27206;47.032;15.484;2022-07-12T09:25:31;22.70;1.00
41469;DHT22;27206;47.032;15.484;2022-07-12T09:28:07;23.00;1.00
41469;DHT22;27206;47.032;15.484;2022-07-12T09:30:34;23.30;1.00
41469;DHT22;27206;47.032;15.484;2022-07-12T09:33:06;23.50;1.00
41469;DHT22;27206;47.032;15.484;2022-07-12T09:38:36;23.90;1.00
41469;DHT22;27206;47.032;15.484;2022-07-12T09:41:03;24.40;1.00
41469;DHT22;27206;47.032;15.484;2022-07-12T09:43:29;24.80;1.00
41469;DHT22;27206;47.032;15.484;2022-07-12T09:45:55;25.00;1.00
41469;DHT22;27206;47.032;15.484;2022-07-12T09:48:22;24.80;1.00
41469;DHT22;27206;47.032;15.484;2022-07-12T09:50:49;25.00;1.00
41469;DHT22;27206;47.032;15.484;2022-07-12T09:53:40;24.50;1.00
41469;DHT22;27206;47.032;15.484;2022-07-12T09:56:07;24.40;1.00
41469;DHT22;27206;47.032;15.484;2022-07-12T09:58:57;24.70;1.00
41469;DHT22;27206;47.032;15.484;2022-07-12T10:01:23;24.90;1.00
41469;DHT22;27206;47.032;15.484;2022-07-12T10:03:54;24.90;1.00
41469;DHT22;27206;47.032;15.484;2022-07-12T10:06:25;25.30;1.00
41469;DHT22;27206;47.032;15.484;2022-07-12T10:08:52;25.30;1.00
41469;DHT22;27206;47.032;15.484;2022-07-12T10:11:19;25.20;1.00
41469;DHT22;27206;47.032;15.484;2022-07-12T10:13:45;25.20;1.00
41469;DHT22;27206;47.032;15.484;2022-07-12T10:16:14;25.20;1.00
41469;DHT22;27206;47.032;15.484;2022-07-12T10:18:40;24.70;1.00
41469;DHT22;27206;47.032;15.484;2022-07-12T10:21:19;24.60;1.00
41469;DHT22;27206;47.032;15.484;2022-07-12T10:23:47;24.90;1.00
41469;DHT22;27206;47.032;15.484;2022-07-12T10:29:07;23.90;1.00
41469;DHT22;27206;47.032;15.484;2022-07-12T10:31:38;24.50;1.00
41469;DHT22;27206;47.032;15.484;2022-07-12T10:34:08;25.10;1.00
41469;DHT22;27206;47.032;15.484;2022-07-12T10:39:30;24.80;1.00
41469;DHT22;27206;47.032;15.484;2022-07-12T10:44:36;25.40;1.00
41469;DHT22;27206;47.032;15.484;2022-07-12T10:47:03;25.60;1.00
41469;DHT22;27206;47.032;15.484;2022-07-12T10:49:30;25.40;1.00
41469;DHT22;27206;47.032;15.484;2022-07-12T10:54:50;23.90;1.00
41469;DHT22;27206;47.032;15.484;2022-07-12T10:57:43;24.20;1.00
41469;DHT22;27206;47.032;15.484;2022-07-12T11:00:13;24.10;1.00
41469;DHT22;27206;47.032;15.484;2022-07-12T11:02:39;24.10;1.00
41469;DHT22;27206;47.032;15.484;2022-07-12T11:05:05;23.90;1.00
41469;DHT22;27206;47.032;15.484;2022-07-12T11:07:32;24.20;1.00
41469;DHT22;27206;47.032;15.484;2022-07-12T11:09:58;24.70;1.00
41469;DHT22;27206;47.032;15.484;2022-07-12T11:12:30;25.00;1.00
41469;DHT22;27206;47.032;15.484;2022-07-12T11:14:58;25.20;1.00
41469;DHT22;27206;47.032;15.484;2022-07-12T11:17:31;25.60;1.00
41469;DHT22;27206;47.032;15.484;2022-07-12T11:20:12;26.30;1.00
41469;DHT22;27206;47.032;15.484;2022-07-12T11:22:40;26.80;1.00
41469;DHT22;27206;47.032;15.484;2022-07-12T11:25:08;25.90;1.00
41469;DHT22;27206;47.032;15.484;2022-07-12T11:27:35;25.60;1.00
41469;DHT22;27206;47.032;15.484;2022-07-12T11:30:02;25.60;1.00
41469;DHT22;27206;47.032;15.484;2022-07-12T11:32:39;25.50;1.00
41469;DHT22;27206;47.032;15.484;2022-07-12T11:35:23;25.40;1.00
41469;DHT22;27206;47.032;15.484;2022-07-12T11:37:52;25.30;1.00
41469;DHT22;27206;47.032;15.484;2022-07-12T11:40:29;25.10;1.00
41469;DHT22;27206;47.032;15.484;2022-07-12T11:42:56;25.30;1.00
41469;DHT22;27206;47.032;15.484;2022-07-12T11:45:24;25.00;1.00
41469;DHT22;27206;47.032;15.484;2022-07-12T11:47:50;24.80;1.00
41469;DHT22;27206;47.032;15.484;2022-07-12T11:50:18;25.00;1.00
41469;DHT22;27206;47.032;15.484;2022-07-12T11:52:45;25.20;1.00
41469;DHT22;27206;47.032;15.484;2022-07-12T11:55:10;25.00;1.00
41469;DHT22;27206;47.032;15.484;2022-07-12T11:57:36;25.00;1.00
41469;DHT22;27206;47.032;15.484;2022-07-12T12:00:21;25.20;1.00
41469;DHT22;27206;47.032;15.484;2022-07-12T12:02:54;26.20;1.00
41469;DHT22;27206;47.032;15.484;2022-07-12T12:05:22;26.80;1.00
41469;DHT22;27206;47.032;15.484;2022-07-12T12:07:49;27.80;1.00
41469;DHT22;27206;47.032;15.484;2022-07-12T12:10:15;28.30;1.00
41469;DHT22;27206;47.032;15.484;2022-07-12T12:12:47;27.70;1.00
41469;DHT22;27206;47.032;15.484;2022-07-12T12:15:16;28.40;1.00
41469;DHT22;27206;47.032;15.484;2022-07-12T12:22:57;29.40;1.00
41469;DHT22;27206;47.032;15.484;2022-07-12T12:25:25;30.20;1.00
41469;DHT22;27206;47.032;15.484;2022-07-12T12:28:04;29.70;1.00
41469;DHT22;27206;47.032;15.484;2022-07-12T12:30:33;29.90;1.00
41469;DHT22;27206;47.032;15.484;2022-07-12T12:33:00;29.80;1.00
41469;DHT22;27206;47.032;15.484;2022-07-12T12:35:37;30.20;1.00
41469;DHT22;27206;47.032;15.484;2022-07-12T12:38:12;31.10;1.00
41469;DHT22;27206;47.032;15.484;2022-07-12T12:40:39;30.90;1.00
41469;DHT22;27206;47.032;15.484;2022-07-12T12:43:09;29.80;1.00
41469;DHT22;27206;47.032;15.484;2022-07-12T12:45:47;28.90;1.00
41469;DHT22;27206;47.032;15.484;2022-07-12T12:48:18;27.60;1.00
41469;DHT22;27206;47.032;15.484;2022-07-12T12:50:45;28.90;1.00
41469;DHT22;27206;47.032;15.484;2022-07-12T12:55:40;29.30;1.00
41469;DHT22;27206;47.032;15.484;2022-07-12T12:58:06;28.70;1.00
41469;DHT22;27206;47.032;15.484;2022-07-12T13:00:33;28.50;1.00
41469;DHT22;27206;47.032;15.484;2022-07-12T13:03:00;28.10;1.00
41469;DHT22;27206;47.032;15.484;2022-07-12T13:05:29;27.50;1.00
41469;DHT22;27206;47.032;15.484;2022-07-12T13:07:55;27.30;1.00
41469;DHT22;27206;47.032;15.484;2022-07-12T13:10:22;26.40;1.00
41469;DHT22;27206;47.032;15.484;2022-07-12T13:12:47;26.70;1.00
41469;DHT22;27206;47.032;15.484;2022-07-12T13:15:13;28.10;1.00
41469;DHT22;27206;47.032;15.484;2022-07-12T13:17:39;29.50;1.00
41469;DHT22;27206;47.032;15.484;2022-07-12T13:20:05;29.10;1.00
41469;DHT22;27206;47.032;15.484;2022-07-12T13:22:33;27.40;1.00
41469;DHT22;27206;47.032;15.484;2022-07-12T13:24:58;27.10;1.00
41469;DHT22;27206;47.032;15.484;2022-07-12T13:27:24;26.70;1.00
41469;DHT22;27206;47.032;15.484;2022-07-12T13:29:52;26.60;1.00
41469;DHT22;27206;47.032;15.484;2022-07-12T13:32:19;27.10;1.00
41469;DHT22;27206;47.032;15.484;2022-07-12T13:34:48;26.90;1.00
41469;DHT22;27206;47.032;15.484;2022-07-12T13:37:14;28.50;1.00
41469;DHT22;27206;47.032;15.484;2022-07-12T13:39:40;27.20;1.00
41469;DHT22;27206;47.032;15.484;2022-07-12T13:42:24;26.90;1.00
41469;DHT22;27206;47.032;15.484;2022-07-12T13:44:53;26.60;1.00
41469;DHT22;27206;47.032;15.484;2022-07-12T13:47:20;26.90;1.00
41469;DHT22;27206;47.032;15.484;2022-07-12T13:49:47;27.10;1.00
41469;DHT22;27206;47.032;15.484;2022-07-12T13:52:13;26.80;1.00
41469;DHT22;27206;47.032;15.484;2022-07-12T13:54:40;26.10;1.00
41469;DHT22;27206;47.032;15.484;2022-07-12T13:57:06;25.50;1.00
41469;DHT22;27206;47.032;15.484;2022-07-12T13:59:33;25.00;1.00
41469;DHT22;27206;47.032;15.484;2022-07-12T14:01:58;24.60;1.00
41469;DHT22;27206;47.032;15.484;2022-07-12T14:04:24;24.40;1.00
41469;DHT22;27206;47.032;15.484;2022-07-12T14:06:50;24.20;1.00
41469;DHT22;27206;47.032;15.484;2022-07-12T14:09:16;24.40;1.00
41469;DHT22;27206;47.032;15.484;2022-07-12T14:11:42;24.50;1.00
41469;DHT22;27206;47.032;15.484;2022-07-12T14:14:07;24.20;1.00
41469;DHT22;27206;47.032;15.484;2022-07-12T14:16:33;24.10;1.00
41469;DHT22;27206;47.032;15.484;2022-07-12T14:18:59;23.90;1.00
41469;DHT22;27206;47.032;15.484;2022-07-12T14:21:26;24.90;1.00
41469;DHT22;27206;47.032;15.484;2022-07-12T14:23:53;26.00;1.00
41469;DHT22;27206;47.032;15.484;2022-07-12T14:26:19;26.80;1.00
41469;DHT22;27206;47.032;15.484;2022-07-12T14:28:45;26.70;1.00
41469;DHT22;27206;47.032;15.484;2022-07-12T14:31:11;25.90;1.00
41469;DHT22;27206;47.032;15.484;2022-07-12T14:33:37;25.00;1.00
41469;DHT22;27206;47.032;15.484;2022-07-12T14:36:03;24.30;1.00
41469;DHT22;27206;47.032;15.484;2022-07-12T14:38:29;24.50;1.00
41469;DHT22;27206;47.032;15.484;2022-07-12T14:40:54;24.80;1.00
41469;DHT22;27206;47.032;15.484;2022-07-12T14:43:20;24.70;1.00
41469;DHT22;27206;47.032;15.484;2022-07-12T14:45:46;24.60;1.00
41469;DHT22;27206;47.032;15.484;2022-07-12T14:48:12;24.20;1.00
41469;DHT22;27206;47.032;15.484;2022-07-12T14:50:38;24.00;1.00
41469;DHT22;27206;47.032;15.484;2022-07-12T14:53:04;23.70;1.00
41469;DHT22;27206;47.032;15.484;2022-07-12T14:55:30;23.60;1.00
41469;DHT22;27206;47.032;15.484;2022-07-12T14:57:55;23.70;1.00
41469;DHT22;27206;47.032;15.484;2022-07-12T15:00:22;23.40;1.00
41469;DHT22;27206;47.032;15.484;2022-07-12T15:02:48;23.50;1.00
41469;DHT22;27206;47.032;15.484;2022-07-12T15:05:14;24.80;1.00
41469;DHT22;27206;47.032;15.484;2022-07-12T15:07:40;25.70;1.00
41469;DHT22;27206;47.032;15.484;2022-07-12T15:10:07;26.00;1.00
41469;DHT22;27206;47.032;15.484;2022-07-12T15:12:33;25.90;1.00
41469;DHT22;27206;47.032;15.484;2022-07-12T15:14:59;26.00;1.00
41469;DHT22;27206;47.032;15.484;2022-07-12T15:17:24;25.70;1.00
41469;DHT22;27206;47.032;15.484;2022-07-12T15:19:50;25.00;1.00
41469;DHT22;27206;47.032;15.484;2022-07-12T15:22:16;25.30;1.00
41469;DHT22;27206;47.032;15.484;2022-07-12T15:24:42;26.40;1.00
41469;DHT22;27206;47.032;15.484;2022-07-12T15:27:08;26.20;1.00
41469;DHT22;27206;47.032;15.484;2022-07-12T15:29:37;26.10;1.00
41469;DHT22;27206;47.032;15.484;2022-07-12T15:32:04;25.80;1.00
41469;DHT22;27206;47.032;15.484;2022-07-12T15:34:30;26.70;1.00
41469;DHT22;27206;47.032;15.484;2022-07-12T15:36:56;26.10;1.00
41469;DHT22;27206;47.032;15.484;2022-07-12T15:39:21;26.10;1.00
41469;DHT22;27206;47.032;15.484;2022-07-12T15:41:48;25.90;1.00
41469;DHT22;27206;47.032;15.484;2022-07-12T15:44:14;25.20;1.00
41469;DHT22;27206;47.032;15.484;2022-07-12T15:46:39;24.90;1.00
41469;DHT22;27206;47.032;15.484;2022-07-12T15:49:06;24.70;1.00
41469;DHT22;27206;47.032;15.484;2022-07-12T15:51:33;24.60;1.00
41469;DHT22;27206;47.032;15.484;2022-07-12T15:54:17;24.70;1.00